Terminal Aerodrome Forecast
Issued by NWS Newport/Morehead City, NC

Home | Current Version | Previous Version | Graphics & Text | Print | Product List | Glossary On
Versions: 1 2 3 4 5 6 7 8 9 10 11 12 13 14 15 16 17 18 19
000
FTUS42 KMHX 262014 AAA
TAFEWN
TAF AMD
KEWN 262014Z 2620/2718 10005KT P6SM VCTS SCT025CB BKN040
      TEMPO 2620/2623 4SM TSRA BR BKN025CB
     FM270500 00000KT 3SM BR SCT005
     FM271200 05008KT P6SM BKN250=

USA.gov is the U.S. government's official web portal to all federal, state and local government web resources and services.